Time;durP1;ratioP1;P1;durP2;ratioP2;P2;SDS_P1;SDS_P2;PMS_P1;PMS_P2;Temp;Humidity;BMP_temperature;BMP_pressure;BME280_temperature;BME280_humidity;BME280_pressure;Samples;Min_cycle;Max_cycle;Signal;HPM_P1;HPM_P2
2024/02/03 00:01:49;;;;;;;21.13;8.95;;;;;;;8.88;63.69;100285.38;4984585;28;96965;-84
2024/02/03 00:04:14;;;;;;;18.55;10.30;;;;;;;9.00;64.21;100318.19;4978064;28;100109;-84
2024/02/03 00:06:40;;;;;;;18.63;9.88;;;;;;;8.98;64.25;100312.13;4989553;28;98158;-86
2024/02/03 00:09:06;;;;;;;20.50;9.80;;;;;;;8.90;64.28;100301.91;4978967;28;97119;-85
2024/02/03 00:11:31;;;;;;;15.35;8.43;;;;;;;8.99;64.22;100311.25;4986711;28;96866;-85
2024/02/03 00:13:57;;;;;;;17.63;8.90;;;;;;;8.94;64.58;100313.13;4979803;28;97260;-85
2024/02/03 00:16:23;;;;;;;14.32;8.68;;;;;;;8.93;64.14;100311.41;4991412;28;97511;-85
2024/02/03 00:18:49;;;;;;;18.20;8.73;;;;;;;8.91;64.53;100316.69;4955792;28;97238;-85
2024/02/03 00:21:14;;;;;;;21.13;8.57;;;;;;;8.91;64.27;100315.84;4982321;28;96979;-84
2024/02/03 00:23:40;;;;;;;11.77;6.82;;;;;;;8.99;63.83;100308.66;4980974;28;101597;-85
2024/02/03 00:26:06;;;;;;;23.10;7.95;;;;;;;8.89;64.32;100275.75;4998262;28;97855;-86
2024/02/03 00:28:31;;;;;;;15.93;7.55;;;;;;;8.93;64.27;100298.31;4978047;28;96725;-86
2024/02/03 00:30:57;;;;;;;19.13;7.65;;;;;;;8.91;63.87;100282.66;4978525;28;96891;-86
2024/02/03 00:33:22;;;;;;;16.48;6.95;;;;;;;8.94;63.67;100295.66;4975278;28;100558;-85
2024/02/03 00:35:47;;;;;;;18.83;6.95;;;;;;;8.96;64.37;100295.59;4997543;28;98065;-85
2024/02/03 00:38:13;;;;;;;10.50;5.95;;;;;;;9.03;63.66;100287.56;4963403;28;97349;-85
2024/02/03 00:40:38;;;;;;;11.88;6.35;;;;;;;8.73;63.71;100243.91;4991290;28;97192;-85
2024/02/03 00:43:04;;;;;;;11.25;5.90;;;;;;;8.95;63.60;100281.66;4981547;28;98029;-85
2024/02/03 00:45:29;;;;;;;14.00;6.57;;;;;;;8.88;63.91;100277.50;4981489;28;100901;-86
2024/02/03 00:47:55;;;;;;;13.30;6.15;;;;;;;8.65;63.78;100238.03;4978763;28;97282;-85
2024/02/03 00:50:20;;;;;;;12.98;5.78;;;;;;;8.68;64.22;100243.19;4973542;28;96957;-86
2024/02/03 00:52:46;;;;;;;10.02;5.97;;;;;;;8.99;64.05;100293.78;4979958;28;101547;-85
2024/02/03 00:55:11;;;;;;;14.25;5.97;;;;;;;9.00;64.12;100290.25;4960721;28;101098;-85
2024/02/03 00:57:37;;;;;;;14.57;6.82;;;;;;;8.91;63.90;100279.19;4971723;28;96811;-86
2024/02/03 01:00:04;;;;;;;18.20;7.05;;;;;;;8.98;64.16;100289.44;4961459;28;96946;-85
2024/02/03 01:02:30;;;;;;;10.32;5.55;;;;;;;9.05;64.36;100295.38;4973760;28;101785;-85
2024/02/03 01:04:55;;;;;;;16.58;6.75;;;;;;;8.89;64.27;100279.22;4989088;28;98081;-85
2024/02/03 01:07:21;;;;;;;9.48;5.07;;;;;;;8.87;64.43;100270.53;4974634;28;97119;-86
2024/02/03 01:09:46;;;;;;;11.60;5.82;;;;;;;9.06;63.97;100290.06;4981766;28;97059;-85
2024/02/03 01:12:12;;;;;;;7.80;4.60;;;;;;;8.95;64.31;100265.94;4978229;28;101986;-84
2024/02/03 01:14:37;;;;;;;17.38;5.57;;;;;;;9.04;64.78;100294.50;4979251;28;100752;-85
2024/02/03 01:17:04;;;;;;;10.38;5.47;;;;;;;9.04;64.66;100281.41;4970956;28;96729;-86
2024/02/03 01:19:30;;;;;;;12.65;6.13;;;;;;;9.00;64.85;100294.63;4961636;28;96973;-85
2024/02/03 01:21:56;;;;;;;11.73;5.38;;;;;;;9.15;64.78;100314.28;4961952;28;101411;-86
2024/02/03 01:24:21;;;;;;;14.38;6.18;;;;;;;9.13;64.82;100316.09;4993752;28;98215;-86
2024/02/03 01:26:47;;;;;;;9.55;5.28;;;;;;;9.00;64.67;100278.94;4964658;28;96885;-86
2024/02/03 01:29:12;;;;;;;10.80;5.07;;;;;;;9.05;64.72;100300.63;4989946;28;96875;-86
2024/02/03 01:31:39;;;;;;;9.10;4.78;;;;;;;9.14;64.47;100320.44;4991058;28;97886;-86
2024/02/03 01:34:04;;;;;;;10.25;5.40;;;;;;;8.98;64.59;100304.28;4975917;28;101258;-86
2024/02/03 01:36:30;;;;;;;9.32;5.50;;;;;;;9.09;65.14;100327.56;4979474;28;97007;-84
2024/02/03 01:38:56;;;;;;;10.48;5.60;;;;;;;8.91;64.99;100290.50;4996872;28;97054;-86
2024/02/03 01:41:22;;;;;;;9.77;5.20;;;;;;;9.00;65.26;100297.25;4976860;28;101190;-86
2024/02/03 01:43:47;;;;;;;11.10;5.28;;;;;;;9.09;64.92;100315.31;4979799;28;98054;-86
2024/02/03 01:46:14;;;;;;;10.77;5.63;;;;;;;8.93;65.17;100296.56;4975643;28;97131;-85
2024/02/03 01:48:40;;;;;;;15.85;5.60;;;;;;;9.00;65.11;100286.78;4976252;28;96799;-85
2024/02/03 01:51:07;;;;;;;12.35;5.80;;;;;;;9.07;65.62;100312.75;4971261;28;100996;-85
2024/02/03 01:53:32;;;;;;;9.98;5.15;;;;;;;8.96;65.56;100306.06;4996660;28;97971;-86
2024/02/03 01:55:58;;;;;;;9.40;5.97;;;;;;;8.95;65.69;100320.94;4979673;28;96676;-87
2024/02/03 01:58:24;;;;;;;10.75;6.40;;;;;;;9.13;65.16;100313.47;4976738;28;97346;-85
2024/02/03 02:00:50;;;;;;;14.60;5.78;;;;;;;9.16;65.69;100324.75;4979803;28;101741;-85
2024/02/03 02:03:16;;;;;;;15.10;5.97;;;;;;;9.09;65.43;100315.31;4996518;28;97879;-85
2024/02/03 02:05:44;;;;;;;11.07;5.47;;;;;;;9.13;65.78;100329.19;4961136;28;96839;-86
2024/02/03 02:08:09;;;;;;;10.32;5.40;;;;;;;9.07;65.68;100312.75;4996902;28;96795;-85
2024/02/03 02:10:35;;;;;;;9.95;5.10;;;;;;;9.14;65.49;100321.28;4979950;28;97593;-85
2024/02/03 02:13:02;;;;;;;13.77;5.70;;;;;;;9.09;65.93;100317.09;4973750;28;101544;-85
2024/02/03 02:15:27;;;;;;;11.13;5.32;;;;;;;9.05;66.17;100313.72;4974348;28;96705;-85
2024/02/03 02:17:59;;;;;;;7.65;5.07;;;;;;;9.10;66.68;100330.13;4984975;28;97220;-86
2024/02/03 02:20:25;;;;;;;15.65;6.13;;;;;;;9.12;66.26;100327.47;4963146;28;101256;-84
2024/02/03 02:22:51;;;;;;;10.05;5.50;;;;;;;9.13;66.45;100322.19;4955840;28;101041;-85
2024/02/03 02:25:16;;;;;;;9.88;6.15;;;;;;;9.08;66.62;100318.84;4974728;28;96852;-86
2024/02/03 02:27:42;;;;;;;13.25;6.65;;;;;;;9.06;66.47;100311.03;4966868;28;96877;-84
2024/02/03 02:30:08;;;;;;;9.65;5.78;;;;;;;9.10;66.35;100314.41;4978122;28;99503;-85
2024/02/03 02:32:33;;;;;;;12.93;6.88;;;;;;;9.16;66.94;100324.75;4985200;28;98010;-85
2024/02/03 02:34:59;;;;;;;10.27;6.32;;;;;;;9.15;66.68;100316.91;4976822;28;96801;-86
2024/02/03 02:37:25;;;;;;;12.57;6.30;;;;;;;9.25;66.47;100328.81;4963196;28;96875;-84
2024/02/03 02:39:50;;;;;;;12.20;5.90;;;;;;;9.20;67.22;100328.97;4979755;28;97621;-84
2024/02/03 02:42:16;;;;;;;13.23;6.50;;;;;;;9.12;67.39;100315.22;4989443;28;97640;-85
2024/02/03 02:44:41;;;;;;;9.70;5.60;;;;;;;9.19;67.36;100323.78;4976393;28;96864;-84
2024/02/03 02:47:07;;;;;;;11.23;6.28;;;;;;;9.17;67.41;100331.69;4994283;28;96788;-85
2024/02/03 02:49:33;;;;;;;12.43;6.47;;;;;;;9.12;67.68;100333.56;4970531;28;101357;-86
2024/02/03 02:51:59;;;;;;;13.85;6.88;;;;;;;9.03;67.71;100316.34;4976399;28;101011;-85
2024/02/03 02:54:24;;;;;;;13.85;7.18;;;;;;;9.09;68.13;100325.78;4962346;28;96805;-87
2024/02/03 02:56:50;;;;;;;11.45;6.35;;;;;;;9.19;67.81;100334.25;4976198;28;96838;-85
2024/02/03 02:59:18;;;;;;;11.35;5.18;;;;;;;9.11;67.69;100315.28;4969162;28;101264;-85
2024/02/03 03:01:44;;;;;;;10.13;5.82;;;;;;;9.35;67.38;100338.16;4971010;28;97777;-85
2024/02/03 03:04:09;;;;;;;12.27;6.50;;;;;;;9.29;68.08;100327.84;4958813;28;97407;-85
2024/02/03 03:06:34;;;;;;;13.70;6.53;;;;;;;9.16;68.19;100322.13;4995914;28;96926;-85
2024/02/03 03:09:00;;;;;;;10.55;6.63;;;;;;;9.27;68.35;100334.91;4958915;28;100583;-85
2024/02/03 03:11:26;;;;;;;8.05;5.15;;;;;;;9.35;68.16;100337.31;4963887;28;101466;-85
2024/02/03 03:13:51;;;;;;;13.43;5.85;;;;;;;9.29;68.61;100338.34;4966985;28;97257;-86
2024/02/03 03:16:17;;;;;;;8.23;5.47;;;;;;;9.19;68.76;100321.16;4984530;28;97542;-85
2024/02/03 03:18:42;;;;;;;9.23;5.10;;;;;;;9.19;69.13;100332.50;4970768;28;98120;-85
2024/02/03 03:21:08;;;;;;;10.38;5.88;;;;;;;9.20;69.25;100325.50;4968745;28;98430;-85
2024/02/03 03:23:34;;;;;;;10.50;6.32;;;;;;;9.29;69.48;100333.09;4991336;28;97231;-85
2024/02/03 03:26:00;;;;;;;10.82;6.07;;;;;;;9.30;69.83;100350.53;4978063;28;96819;-86
2024/02/03 03:28:26;;;;;;;9.52;5.43;;;;;;;9.18;69.96;100343.00;4966698;28;98966;-86
2024/02/03 03:30:51;;;;;;;9.63;5.93;;;;;;;9.21;70.43;100361.25;4995694;28;98046;-86
2024/02/03 03:33:17;;;;;;;11.82;6.40;;;;;;;9.11;70.47;100333.63;4977643;28;97050;-87
2024/02/03 03:35:43;;;;;;;13.45;5.60;;;;;;;9.20;70.70;100349.06;4959337;28;96915;-86
2024/02/03 03:38:10;;;;;;;12.05;5.35;;;;;;;9.14;71.06;100341.41;4974136;28;100851;-86
2024/02/03 03:40:37;;;;;;;10.23;5.28;;;;;;;9.21;70.68;100348.16;4980227;28;97397;-85
2024/02/03 03:43:04;;;;;;;8.13;5.00;;;;;;;9.14;70.82;100341.41;4977599;28;97091;-85
2024/02/03 03:45:30;;;;;;;11.40;6.10;;;;;;;9.15;71.09;100351.81;4978688;28;96905;-86
2024/02/03 03:47:56;;;;;;;11.43;5.85;;;;;;;9.16;70.60;100357.91;4959606;28;100959;-85
2024/02/03 03:50:21;;;;;;;7.15;4.88;;;;;;;9.27;71.12;100356.69;4958837;28;100996;-85
2024/02/03 03:52:47;;;;;;;8.38;5.18;;;;;;;9.06;71.54;100346.84;4975846;28;96797;-86
2024/02/03 03:55:13;;;;;;;8.00;5.50;;;;;;;8.94;71.79;100334.94;4966453;28;96999;-85
2024/02/03 03:57:38;;;;;;;9.05;5.05;;;;;;;9.06;71.96;100352.06;4981459;28;101436;-87
2024/02/03 04:00:05;;;;;;;9.18;5.45;;;;;;;8.93;71.75;100335.84;4985051;28;96791;-85
2024/02/03 04:02:37;;;;;;;8.90;5.07;;;;;;;8.97;71.95;100326.16;4970286;28;97580;-85
2024/02/03 04:05:04;;;;;;;7.78;5.15;;;;;;;9.01;71.51;100336.47;4968987;28;97227;-84
2024/02/03 04:07:30;;;;;;;7.25;4.97;;;;;;;9.08;71.61;100355.50;4956147;28;101308;-85
2024/02/03 04:09:56;;;;;;;11.00;5.88;;;;;;;9.09;71.87;100341.50;4968971;28;101431;-85
2024/02/03 04:12:22;;;;;;;7.28;4.97;;;;;;;9.17;71.46;100355.25;4971971;28;97302;-85
2024/02/03 04:14:47;;;;;;;8.60;6.00;;;;;;;9.20;71.61;100343.84;4977738;28;96804;-85
2024/02/03 04:17:14;;;;;;;6.10;5.05;;;;;;;9.19;71.43;100347.34;4946402;28;101234;-84
2024/02/03 04:19:39;;;;;;;5.15;4.55;;;;;;;9.15;71.20;100345.72;4968107;28;100934;-85
2024/02/03 04:22:05;;;;;;;10.65;5.00;;;;;;;9.24;71.27;100348.06;4958502;28;96791;-85
2024/02/03 04:24:31;;;;;;;11.07;5.40;;;;;;;9.23;71.12;100330.66;4965654;28;96877;-85
2024/02/03 04:26:57;;;;;;;7.70;5.30;;;;;;;9.22;70.93;100328.91;4975764;28;101994;-85
2024/02/03 04:29:22;;;;;;;9.85;5.15;;;;;;;9.22;70.86;100323.69;4959405;28;99819;-85
2024/02/03 04:31:48;;;;;;;7.28;5.05;;;;;;;9.28;70.63;100331.41;4970553;28;96692;-85
2024/02/03 04:34:17;;;;;;;7.93;5.50;;;;;;;8.99;70.54;100291.16;4987148;28;97149;-85
2024/02/03 04:36:42;;;;;;;8.35;5.60;;;;;;;9.21;71.15;100320.22;4970086;28;101319;-86
2024/02/03 04:39:08;;;;;;;7.60;6.30;;;;;;;9.18;71.25;100317.69;4960478;28;101653;-85
2024/02/03 04:41:34;;;;;;;7.22;5.63;;;;;;;9.25;70.68;100327.09;4975050;28;96783;-85
2024/02/03 04:43:59;;;;;;;7.65;5.43;;;;;;;9.28;70.85;100323.53;4960713;28;96885;-86
2024/02/03 04:46:25;;;;;;;6.38;5.15;;;;;;;9.37;70.32;100338.13;4960456;28;101391;-84
2024/02/03 04:48:52;;;;;;;6.30;4.82;;;;;;;9.29;70.04;100320.84;4989379;28;98005;-85
2024/02/03 04:51:18;;;;;;;7.82;5.68;;;;;;;9.25;70.58;100302.63;4967446;28;96808;-85
2024/02/03 04:53:43;;;;;;;5.78;5.00;;;;;;;9.29;70.46;100304.28;4961532;28;97247;-86
2024/02/03 04:56:09;;;;;;;9.32;5.85;;;;;;;9.19;70.18;100290.59;4980727;28;101411;-85
2024/02/03 04:58:35;;;;;;;9.20;5.65;;;;;;;9.17;69.99;100276.69;4964542;28;101329;-87
2024/02/03 05:01:04;;;;;;;7.82;5.68;;;;;;;9.37;69.86;100296.22;4984779;28;96691;-85
2024/02/03 05:03:33;;;;;;;7.47;5.25;;;;;;;9.32;70.07;100298.09;4983561;28;97329;-85
2024/02/03 05:06:03;;;;;;;7.45;4.85;;;;;;;9.32;69.64;100296.34;4978157;28;97642;-85
2024/02/03 05:08:29;;;;;;;7.15;5.47;;;;;;;9.17;69.63;100270.59;4976455;28;101964;-85
2024/02/03 05:10:55;;;;;;;8.63;5.78;;;;;;;9.41;69.58;100308.31;4981307;28;96718;-85
2024/02/03 05:13:20;;;;;;;7.25;5.45;;;;;;;9.33;69.67;100286.72;4974258;28;96819;-85
2024/02/03 05:15:46;;;;;;;9.55;6.15;;;;;;;9.43;69.42;100298.66;4977548;28;98065;-85
2024/02/03 05:18:11;;;;;;;7.13;5.55;;;;;;;9.56;68.93;100314.84;4973319;28;97858;-85
2024/02/03 05:20:37;;;;;;;11.30;5.38;;;;;;;9.39;69.58;100273.44;4957048;28;97640;-85
2024/02/03 05:23:02;;;;;;;7.03;5.32;;;;;;;9.42;69.44;100292.53;4973575;28;96825;-85
2024/02/03 05:25:28;;;;;;;8.85;5.25;;;;;;;9.29;69.07;100265.00;4993831;28;97998;-85
2024/02/03 05:27:53;;;;;;;11.40;6.95;;;;;;;9.51;69.14;100302.75;4977178;28;97968;-85
2024/02/03 05:30:19;;;;;;;12.98;8.00;;;;;;;9.38;68.84;100280.44;4998792;28;96802;-85
2024/02/03 05:32:44;;;;;;;7.80;5.60;;;;;;;9.55;69.17;100302.66;4976627;28;97039;-85
2024/02/03 05:35:10;;;;;;;8.70;6.13;;;;;;;9.38;68.88;100276.97;4962443;28;100994;-85
2024/02/03 05:37:35;;;;;;;7.43;5.90;;;;;;;9.53;69.43;100292.22;4961208;28;101129;-84
2024/02/03 05:40:01;;;;;;;8.07;5.70;;;;;;;9.65;68.85;100301.47;4975680;28;96908;-85
2024/02/03 05:42:29;;;;;;;8.88;5.53;;;;;;;9.56;69.09;100296.50;4972227;28;96908;-85
2024/02/03 05:44:56;;;;;;;8.95;5.95;;;;;;;9.55;69.07;100297.41;4959969;28;101584;-84
2024/02/03 05:47:21;;;;;;;7.30;5.43;;;;;;;9.65;68.41;100291.84;4970742;28;101350;-85
2024/02/03 05:49:47;;;;;;;7.10;5.82;;;;;;;9.65;69.07;100304.09;4965688;28;96755;-84
2024/02/03 05:52:12;;;;;;;7.90;5.28;;;;;;;9.65;69.05;100296.22;4962132;28;96883;-86
2024/02/03 05:54:38;;;;;;;10.45;6.20;;;;;;;9.67;68.88;100305.75;4973452;28;101872;-85
2024/02/03 05:57:04;;;;;;;9.73;5.80;;;;;;;9.69;69.31;100308.34;4961388;28;101677;-85
2024/02/03 05:59:29;;;;;;;8.40;5.80;;;;;;;9.64;69.21;100292.75;4993518;28;96764;-85
2024/02/03 06:01:55;;;;;;;9.10;6.13;;;;;;;9.74;69.14;100315.16;4970762;28;96901;-85
2024/02/03 06:04:20;;;;;;;8.93;6.18;;;;;;;9.67;69.30;100287.41;4979415;28;98732;-84
2024/02/03 06:06:46;;;;;;;7.47;5.68;;;;;;;9.68;68.84;100283.03;4976547;28;100681;-85
2024/02/03 06:09:11;;;;;;;7.43;5.55;;;;;;;9.58;69.30;100271.13;4990108;28;96913;-84
2024/02/03 06:11:37;;;;;;;8.45;5.63;;;;;;;9.61;69.61;100277.13;5008844;28;98106;-84
2024/02/03 06:14:02;;;;;;;7.65;5.57;;;;;;;9.88;69.27;100304.22;4973415;28;101531;-84
2024/02/03 06:16:28;;;;;;;6.72;5.53;;;;;;;9.72;69.30;100276.78;4983406;28;97595;-86
2024/02/03 06:18:53;;;;;;;9.85;6.50;;;;;;;9.75;69.70;100289.81;4977527;28;97065;-85
2024/02/03 06:21:19;;;;;;;14.10;6.90;;;;;;;9.81;69.12;100296.63;4964326;28;97055;-84
2024/02/03 06:23:44;;;;;;;8.32;5.57;;;;;;;9.77;69.19;100284.50;4988053;28;97957;-86
2024/02/03 06:26:10;;;;;;;8.68;6.18;;;;;;;9.83;69.50;100300.03;4950220;28;101026;-85
2024/02/03 06:28:36;;;;;;;7.50;5.65;;;;;;;9.85;69.84;100312.19;4978008;28;96743;-85
2024/02/03 06:31:01;;;;;;;8.68;6.68;;;;;;;9.72;70.16;100295.16;4963416;28;97219;-85
2024/02/03 06:33:27;;;;;;;10.23;6.47;;;;;;;9.75;70.38;100302.91;4976647;28;101658;-84
2024/02/03 06:35:53;;;;;;;9.95;6.40;;;;;;;9.78;70.40;100312.44;4974135;28;97559;-86
2024/02/03 06:38:19;;;;;;;9.55;7.03;;;;;;;9.65;71.01;100286.59;4975275;28;97110;-85
2024/02/03 06:40:44;;;;;;;7.97;6.05;;;;;;;9.73;71.26;100299.47;4971634;28;96936;-85
2024/02/03 06:43:09;;;;;;;9.63;6.45;;;;;;;9.68;70.87;100302.22;4965082;28;101220;-85
2024/02/03 06:45:36;;;;;;;8.30;6.13;;;;;;;9.82;70.63;100312.28;4987137;28;96818;-85
2024/02/03 06:48:01;;;;;;;7.57;5.72;;;;;;;9.66;70.34;100283.09;4948652;28;98554;-85
2024/02/03 06:50:27;;;;;;;9.90;6.63;;;;;;;9.75;70.33;100295.91;4970995;28;97066;-85
2024/02/03 06:52:52;;;;;;;10.52;7.25;;;;;;;9.81;69.93;100294.00;5007363;28;97572;-85
2024/02/03 06:55:18;;;;;;;7.85;6.20;;;;;;;9.84;69.71;100296.53;4964637;28;101296;-85
2024/02/03 06:57:43;;;;;;;9.85;6.70;;;;;;;9.87;69.74;100301.69;4960805;28;97207;-86
2024/02/03 07:00:12;;;;;;;9.75;6.55;;;;;;;9.63;69.63;100235.13;4962016;28;97093;-87
2024/02/03 07:02:37;;;;;;;9.57;6.68;;;;;;;9.93;69.18;100299.72;4956776;28;101640;-86
2024/02/03 07:05:03;;;;;;;11.13;7.22;;;;;;;10.06;69.22;100315.03;4973661;28;101289;-85
2024/02/03 07:07:29;;;;;;;11.27;6.55;;;;;;;9.81;69.31;100299.25;4968842;28;96847;-86
2024/02/03 07:09:58;;;;;;;8.73;6.50;;;;;;;9.93;69.23;100315.44;4953638;28;97342;-84
2024/02/03 07:12:27;;;;;;;9.30;6.38;;;;;;;9.72;68.81;100271.56;4965315;28;101369;-86
2024/02/03 07:14:53;;;;;;;9.05;6.13;;;;;;;10.01;69.04;100312.59;4954000;28;101028;-88
2024/02/03 07:17:19;;;;;;;8.50;6.22;;;;;;;9.98;69.04;100316.16;4964818;28;97312;-85
2024/02/03 07:19:44;;;;;;;8.85;6.20;;;;;;;9.80;69.21;100285.25;4975504;28;97005;-86
2024/02/03 07:22:10;;;;;;;9.88;6.38;;;;;;;9.96;69.16;100317.97;4953235;28;101332;-86
2024/02/03 07:24:38;;;;;;;8.95;5.97;;;;;;;9.85;68.97;100274.63;4965668;28;101525;-85
2024/02/03 07:27:05;;;;;;;9.52;5.78;;;;;;;9.83;69.23;100277.31;4991301;28;96966;-85
2024/02/03 07:29:30;;;;;;;7.40;5.63;;;;;;;9.85;69.31;100288.59;4975211;28;96916;-85
2024/02/03 07:32:00;;;;;;;7.93;5.63;;;;;;;10.03;69.04;100308.13;4971524;28;97620;-87
2024/02/03 07:34:26;;;;;;;6.10;5.13;;;;;;;10.04;69.12;100302.00;4970140;28;101861;-86
2024/02/03 07:36:52;;;;;;;9.48;5.38;;;;;;;10.12;69.08;100313.09;4963745;28;96742;-86
2024/02/03 07:39:17;;;;;;;7.13;5.35;;;;;;;9.94;69.12;100276.97;4961748;28;96965;-87
2024/02/03 07:41:43;;;;;;;8.05;5.72;;;;;;;9.93;69.15;100291.84;4951537;28;101321;-85
2024/02/03 07:44:09;;;;;;;7.32;5.18;;;;;;;10.05;69.25;100298.47;4964392;28;101052;-87
2024/02/03 07:46:34;;;;;;;7.05;5.45;;;;;;;10.14;69.20;100315.66;4973148;28;97057;-85
2024/02/03 07:49:00;;;;;;;10.35;5.47;;;;;;;10.09;68.73;100293.97;4973816;28;96911;-87
2024/02/03 07:51:25;;;;;;;7.50;5.47;;;;;;;10.08;69.22;100298.34;4971133;28;101520;-85
2024/02/03 07:53:51;;;;;;;6.13;4.70;;;;;;;10.04;69.18;100291.50;4972767;28;98015;-86
2024/02/03 07:56:16;;;;;;;6.38;4.85;;;;;;;10.09;69.16;100312.31;4971157;28;96883;-86
2024/02/03 07:58:42;;;;;;;8.10;4.60;;;;;;;10.07;69.39;100299.28;4963697;28;96865;-85
2024/02/03 08:01:07;;;;;;;7.95;5.63;;;;;;;10.16;69.39;100311.22;4989463;28;98161;-86
2024/02/03 08:03:32;;;;;;;6.38;4.30;;;;;;;10.07;69.02;100267.81;4969794;28;98014;-86
2024/02/03 08:06:00;;;;;;;10.30;5.25;;;;;;;10.32;68.70;100295.88;4954817;28;97264;-84
2024/02/03 08:08:25;;;;;;;8.05;5.07;;;;;;;10.31;68.59;100292.38;4968042;28;96833;-86
2024/02/03 08:10:51;;;;;;;8.80;4.63;;;;;;;10.27;68.92;100289.91;4976610;28;98239;-84
2024/02/03 08:13:16;;;;;;;6.78;4.00;;;;;;;10.23;68.64;100294.38;4971716;28;97976;-84
2024/02/03 08:15:42;;;;;;;6.10;4.68;;;;;;;10.17;68.81;100298.06;4952345;28;96911;-84
2024/02/03 08:18:07;;;;;;;8.02;4.20;;;;;;;10.20;69.08;100305.81;4983297;28;96833;-85
2024/02/03 08:20:33;;;;;;;5.10;4.10;;;;;;;10.22;69.15;100303.16;4970704;28;97932;-84
2024/02/03 08:22:59;;;;;;;6.47;3.78;;;;;;;10.25;69.30;100305.69;4974947;28;98697;-88
2024/02/03 08:25:24;;;;;;;6.63;3.50;;;;;;;10.09;69.39;100289.56;4973638;28;97649;-84
2024/02/03 08:27:50;;;;;;;5.60;3.47;;;;;;;10.20;69.41;100299.72;4966526;28;97403;-84
2024/02/03 08:30:15;;;;;;;7.65;3.60;;;;;;;10.15;69.54;100305.13;4992961;28;98037;-84
2024/02/03 08:32:41;;;;;;;4.50;3.78;;;;;;;10.13;69.97;100321.81;4958894;28;101520;-85
2024/02/03 08:35:07;;;;;;;4.07;2.90;;;;;;;10.19;69.71;100330.34;4960593;28;96729;-86
2024/02/03 08:37:32;;;;;;;3.65;2.97;;;;;;;10.03;70.13;100299.41;4977531;28;97400;-82
2024/02/03 08:39:58;;;;;;;3.92;2.90;;;;;;;10.13;70.25;100324.44;4987988;28;97930;-82
2024/02/03 08:42:23;;;;;;;4.80;3.33;;;;;;;9.91;70.37;100291.03;4959873;28;101464;-83
2024/02/03 08:44:49;;;;;;;5.30;3.05;;;;;;;10.02;70.74;100311.66;4953089;28;97203;-85
2024/02/03 08:47:14;;;;;;;6.13;3.58;;;;;;;10.23;70.04;100327.63;4969038;28;97609;-82
2024/02/03 08:49:49;;;;;;;4.65;2.88;;;;;;;10.22;70.04;100326.78;4984652;28;98170;-83
2024/02/03 08:52:15;;;;;;;5.13;2.75;;;;;;;10.27;70.37;100337.13;4976707;28;99905;-84
2024/02/03 08:54:40;;;;;;;3.78;2.72;;;;;;;10.33;70.09;100339.59;4976937;28;97051;-84
2024/02/03 08:57:06;;;;;;;4.07;2.47;;;;;;;10.30;70.11;100348.41;4981465;28;97240;-82
2024/02/03 08:59:31;;;;;;;5.15;2.92;;;;;;;10.39;70.03;100363.00;4957406;28;101137;-82
2024/02/03 09:01:57;;;;;;;5.30;3.05;;;;;;;10.40;70.11;100367.31;4975990;28;97672;-82
2024/02/03 09:04:22;;;;;;;3.35;2.83;;;;;;;10.31;70.26;100365.84;4956891;28;97385;-82
2024/02/03 09:06:48;;;;;;;5.53;2.63;;;;;;;10.27;70.57;100356.38;4960557;28;97013;-82
2024/02/03 09:09:14;;;;;;;5.57;3.33;;;;;;;10.34;71.60;100371.00;4978731;28;97745;-85
2024/02/03 09:11:39;;;;;;;4.50;3.17;;;;;;;10.20;72.50;100374.03;4979659;28;99040;-83
2024/02/03 09:14:05;;;;;;;7.65;3.28;;;;;;;10.13;73.09;100361.16;4973848;28;98432;-83
2024/02/03 09:16:30;;;;;;;3.90;3.00;;;;;;;10.20;72.98;100366.16;4968222;28;97049;-81
2024/02/03 09:18:56;;;;;;;5.40;3.38;;;;;;;10.25;73.59;100359.94;4958077;28;101007;-82
2024/02/03 09:21:21;;;;;;;4.65;3.22;;;;;;;10.27;73.55;100379.09;4973376;28;99374;-81
2024/02/03 09:23:47;;;;;;;8.90;3.58;;;;;;;10.04;73.83;100336.09;4985059;28;96920;-81
2024/02/03 09:26:12;;;;;;;4.80;3.47;;;;;;;10.14;73.95;100378.63;4981310;28;96980;-80
2024/02/03 09:28:38;;;;;;;6.05;3.58;;;;;;;10.03;74.44;100363.19;4958038;28;101225;-82
2024/02/03 09:31:05;;;;;;;5.82;3.28;;;;;;;10.19;74.49;100376.72;4975779;28;101303;-78
2024/02/03 09:33:31;;;;;;;5.38;3.53;;;;;;;10.22;74.45;100375.75;4991582;28;96720;-76
2024/02/03 09:35:56;;;;;;;4.85;3.70;;;;;;;10.12;74.52;100359.44;4992206;28;97229;-77
2024/02/03 09:38:22;;;;;;;7.88;4.50;;;;;;;10.25;74.84;100402.75;4987694;28;101446;-76
2024/02/03 09:40:47;;;;;;;6.70;4.20;;;;;;;10.17;74.96;100397.72;4974627;28;100913;-77
2024/02/03 09:43:13;;;;;;;4.35;3.38;;;;;;;10.11;75.36;100391.81;4968558;28;96928;-77
2024/02/03 09:45:39;;;;;;;6.88;3.55;;;;;;;10.22;75.54;100415.13;4991962;28;97275;-80
2024/02/03 09:48:05;;;;;;;5.72;4.40;;;;;;;10.19;75.78;100411.66;4987649;28;97550;-77
2024/02/03 09:50:30;;;;;;;6.13;4.10;;;;;;;10.17;76.17;100389.88;4991234;28;97294;-76
2024/02/03 09:52:57;;;;;;;7.50;4.40;;;;;;;10.06;76.10;100384.09;4989774;28;97467;-77
2024/02/03 09:55:23;;;;;;;7.35;4.35;;;;;;;10.18;76.71;100409.97;4965219;28;96941;-76
2024/02/03 09:57:48;;;;;;;6.15;4.47;;;;;;;10.20;76.85;100410.75;4978431;28;98262;-76
2024/02/03 10:00:16;;;;;;;7.45;4.50;;;;;;;10.18;76.61;100403.84;4966764;28;100973;-73
2024/02/03 10:02:42;;;;;;;9.25;4.43;;;;;;;10.15;76.70;100409.19;4964191;28;98647;-73
2024/02/03 10:05:08;;;;;;;4.90;3.80;;;;;;;10.26;76.26;100403.59;4984824;28;97410;-81
2024/02/03 10:07:34;;;;;;;8.02;3.80;;;;;;;10.33;76.38;100406.03;4984579;28;97535;-78
2024/02/03 10:10:06;;;;;;;4.75;3.60;;;;;;;10.26;75.77;100399.22;4949523;28;101683;-77
2024/02/03 10:12:32;;;;;;;6.05;4.45;;;;;;;10.25;76.36;100404.53;4961319;28;96851;-78
2024/02/03 10:15:07;;;;;;;6.55;4.10;;;;;;;10.22;76.03;100394.13;4979754;28;97415;-77
2024/02/03 10:17:33;;;;;;;4.78;3.47;;;;;;;10.32;75.61;100371.97;4986264;28;98047;-77
2024/02/03 10:19:59;;;;;;;6.90;4.43;;;;;;;10.66;75.48;100403.22;4962390;28;101924;-80
2024/02/03 10:22:26;;;;;;;5.78;4.10;;;;;;;10.71;74.35;100384.69;4971239;28;96953;-81
2024/02/03 10:24:52;;;;;;;6.40;4.07;;;;;;;10.84;73.97;100380.72;4991121;28;97233;-76
2024/02/03 10:27:26;;;;;;;6.05;4.13;;;;;;;10.83;73.75;100381.66;4970310;28;101609;-77
2024/02/03 10:29:55;;;;;;;5.28;4.18;;;;;;;10.89;73.57;100394.56;4975059;28;98027;-77
2024/02/03 10:32:22;;;;;;;6.80;4.03;;;;;;;10.97;73.43;100375.94;4985497;28;98082;-74
2024/02/03 10:34:49;;;;;;;4.65;4.03;;;;;;;11.06;72.43;100379.09;4955271;28;98345;-75
2024/02/03 10:37:15;;;;;;;8.55;4.40;;;;;;;11.18;72.43;100388.31;4964062;28;101402;-76
2024/02/03 10:39:42;;;;;;;5.22;3.65;;;;;;;11.12;72.01;100366.66;4980194;28;99218;-75
2024/02/03 10:42:09;;;;;;;4.85;3.72;;;;;;;10.99;71.76;100367.06;4981704;28;97235;-74
2024/02/03 10:44:35;;;;;;;8.43;4.22;;;;;;;11.11;72.14;100389.41;4978389;28;96963;-77
2024/02/03 10:47:01;;;;;;;5.63;3.80;;;;;;;10.99;72.31;100387.22;4984148;28;101044;-75
2024/02/03 10:49:33;;;;;;;6.63;4.15;;;;;;;10.96;72.26;100371.56;4967737;28;97537;-76
2024/02/03 10:52:03;;;;;;;;;;;;;;;10.95;72.80;100375.97;4986204;28;97387;-76
2024/02/03 10:54:30;;;;;;;6.63;4.20;;;;;;;10.93;72.95;100374.31;4987346;28;97515;-75
2024/02/03 10:56:56;;;;;;;6.38;4.00;;;;;;;10.97;72.89;100370.69;4968778;28;97496;-74
2024/02/03 10:59:22;;;;;;;5.78;4.63;;;;;;;10.98;73.08;100365.34;4982837;28;97883;-74
2024/02/03 11:01:48;;;;;;;10.30;4.82;;;;;;;11.06;72.98;100375.59;4963926;28;97184;-74
2024/02/03 11:04:14;;;;;;;9.52;5.35;;;;;;;11.05;73.07;100358.09;4958807;28;97415;-74
2024/02/03 11:06:40;;;;;;;4.88;3.70;;;;;;;11.03;72.55;100365.22;4982532;28;98078;-74
2024/02/03 11:09:13;;;;;;;6.13;3.58;;;;;;;10.91;73.12;100331.47;4986932;28;98181;-76
2024/02/03 11:11:47;;;;;;;4.90;3.80;;;;;;;11.05;72.44;100353.75;4980590;28;97454;-76
2024/02/03 11:14:18;;;;;;;5.80;3.45;;;;;;;10.99;72.27;100337.31;4976388;28;97021;-74
2024/02/03 11:16:54;;;;;;;24.08;8.45;;;;;;;11.09;72.35;100360.59;4966615;28;97980;-74
2024/02/03 11:19:28;;;;;;;7.40;3.17;;;;;;;10.94;72.28;100331.38;4956804;28;98143;-71
2024/02/03 11:21:57;;;;;;;15.93;7.05;;;;;;;11.05;71.78;100343.22;4967817;28;97451;-71